Time;durP1;ratioP1;P1;durP2;ratioP2;P2;SDS_P1;SDS_P2;PMS_P1;PMS_P2;Temp;Humidity;BMP_temperature;BMP_pressure;BME280_temperature;BME280_humidity;BME280_pressure;Samples;Min_cycle;Max_cycle;Signal;HPM_P1;HPM_P2
2022/01/13 00:01:41;;;;;;;;;14.75;11.00;;;;;19.86;35.97;103714.41;5068063;28;51272;-52
2022/01/13 00:04:12;;;;;;;;;13.50;9.25;;;;;19.85;36.22;103709.06;5072251;28;51036;-50
2022/01/13 00:06:39;;;;;;;;;10.75;10.25;;;;;19.85;36.19;103706.31;5066600;28;51999;-53
2022/01/13 00:09:05;;;;;;;;;14.50;12.75;;;;;19.83;36.29;103705.59;5066500;28;51361;-47
2022/01/13 00:11:30;;;;;;;;;15.75;12.00;;;;;19.82;36.07;103709.38;5066468;28;51153;-48
2022/01/13 00:21:40;;;;;;;;;11.00;9.25;;;;;19.77;36.18;103706.19;5066284;28;51326;-50
2022/01/13 00:24:10;;;;;;;;;12.00;9.75;;;;;19.77;36.36;103717.19;5071742;28;51107;-51
2022/01/13 00:26:36;;;;;;;;;13.00;9.25;;;;;19.74;36.17;103710.09;5069901;27;51174;-51
2022/01/13 00:29:03;;;;;;;;;9.50;8.75;;;;;19.72;36.35;103690.16;5069178;28;51117;-49
2022/01/13 00:31:33;;;;;;;;;12.00;8.50;;;;;19.74;36.39;103693.59;5060602;28;51089;-47
2022/01/13 00:34:01;;;;;;;;;9.25;9.00;;;;;19.75;36.83;103699.97;5069106;28;51326;-47
2022/01/13 00:36:29;;;;;;;;;7.25;7.00;;;;;19.76;36.47;103705.31;5064952;28;51097;-50
2022/01/13 00:38:56;;;;;;;;;9.00;9.00;;;;;19.76;36.74;103704.44;5064068;28;51325;-51
2022/01/13 00:41:23;;;;;;;;;10.25;10.25;;;;;19.74;36.66;103699.09;5063888;28;51122;-49
2022/01/13 00:43:48;;;;;;;;;9.50;8.25;;;;;19.72;36.35;103694.78;5062026;28;51284;-46
2022/01/13 00:46:23;;;;;;;;;7.75;7.75;;;;;19.72;36.54;103700.28;5071639;28;51828;-44
2022/01/13 00:48:51;;;;;;;;;12.50;9.50;;;;;19.71;36.68;103693.91;5066271;28;51238;-45
2022/01/13 00:51:17;;;;;;;;;12.25;8.00;;;;;19.69;36.53;103692.31;5066009;28;51094;-49
2022/01/13 00:53:43;;;;;;;;;12.25;9.25;;;;;19.68;36.53;103704.31;5066663;28;51113;-48
2022/01/13 00:56:08;;;;;;;;;12.50;9.25;;;;;19.67;36.25;103699.84;5064654;28;51890;-52
2022/01/13 00:58:35;;;;;;;;;14.50;11.25;;;;;19.64;36.67;103698.25;5065055;28;51054;-47
2022/01/13 01:01:03;;;;;;;;;11.50;7.00;;;;;19.63;36.32;103691.03;5058878;28;51082;-45
2022/01/13 01:03:28;;;;;;;;;12.75;11.75;;;;;19.63;36.41;103698.41;5067361;28;51286;-51
2022/01/13 01:05:56;;;;;;;;;8.75;7.75;;;;;19.62;36.46;103699.44;5068954;28;51204;-48
2022/01/13 01:08:23;;;;;;;;;11.75;11.50;;;;;19.59;36.63;103698.72;5067157;28;51218;-47
2022/01/13 01:10:51;;;;;;;;;12.25;10.25;;;;;19.59;36.84;103692.31;5070932;28;51219;-49
2022/01/13 01:13:21;;;;;;;;;12.75;8.50;;;;;19.58;36.37;103696.97;5066285;28;51213;-47
2022/01/13 01:15:51;;;;;;;;;8.50;7.75;;;;;19.57;36.73;103691.59;5065539;28;51803;-50
2022/01/13 01:18:32;;;;;;;;;6.75;6.00;;;;;19.56;36.47;103695.38;5066721;28;51128;-50
2022/01/13 01:31:49;;;;;;;;;11.50;7.75;;;;;19.50;36.82;103693.19;5064559;28;51241;-51
2022/01/13 01:36:45;;;;;;;;;7.75;7.75;;;;;19.48;36.79;103690.56;5063836;28;51698;-48
2022/01/13 01:39:11;;;;;;;;;8.50;8.50;;;;;19.48;36.47;103692.47;5065561;28;51132;-50
2022/01/13 01:41:46;;;;;;;;;8.25;8.00;;;;;19.46;36.65;103684.38;5063141;28;51430;-48
2022/01/13 01:44:23;;;;;;;;;12.00;10.25;;;;;19.46;36.56;103689.00;5066803;28;51052;-45
2022/01/13 01:46:48;;;;;;;;;8.25;6.50;;;;;19.44;36.72;103693.78;5066520;28;51098;-48
2022/01/13 01:49:19;;;;;;;;;11.75;10.00;;;;;19.43;36.54;103701.16;5067165;27;51289;-50
2022/01/13 01:51:48;;;;;;;;;7.00;7.00;;;;;19.42;36.61;103693.06;5065964;27;51048;-46
2022/01/13 01:54:13;;;;;;;;;8.00;8.00;;;;;19.42;36.83;103698.56;5062853;28;51041;-49
2022/01/13 01:56:39;;;;;;;;;9.00;8.00;;;;;19.39;36.49;103693.38;5064892;28;51186;-46
2022/01/13 01:59:07;;;;;;;;;8.00;7.50;;;;;19.39;36.75;103696.97;5067305;28;51361;-50
2022/01/13 02:01:32;;;;;;;;;8.75;7.00;;;;;19.39;36.64;103699.72;5059429;27;51235;-49
2022/01/13 02:03:58;;;;;;;;;6.00;6.00;;;;;19.38;36.47;103708.09;5070142;28;51009;-50
2022/01/13 02:06:23;;;;;;;;;8.75;6.75;;;;;19.37;36.75;103703.63;5068941;27;51183;-50
2022/01/13 02:08:49;;;;;;;;;7.00;5.75;;;;;19.35;36.67;103697.41;5063321;28;51163;-52
2022/01/13 02:11:14;;;;;;;;;8.25;6.00;;;;;19.36;36.69;103704.63;5057824;28;51175;-50
2022/01/13 02:13:47;;;;;;;;;8.75;6.25;;;;;19.33;36.65;103712.16;5065242;28;51266;-48
2022/01/13 02:18:58;;;;;;;;;6.50;6.00;;;;;19.32;36.62;103713.19;5057787;28;51172;-48
2022/01/13 02:21:25;;;;;;;;;8.00;8.00;;;;;19.31;36.75;103707.84;5068452;28;51497;-50
2022/01/13 02:23:52;;;;;;;;;7.25;7.25;;;;;19.30;36.61;103714.34;5063678;28;51396;-51
2022/01/13 02:26:18;;;;;;;;;6.75;6.75;;;;;19.30;36.97;103725.34;5064112;27;51975;-46
2022/01/13 02:28:44;;;;;;;;;7.50;6.00;;;;;19.28;36.92;103717.25;5063797;28;51086;-52
2022/01/13 02:31:11;;;;;;;;;7.00;6.00;;;;;19.28;36.58;103719.13;5063508;28;51170;-51
2022/01/13 02:33:37;;;;;;;;;6.00;5.50;;;;;19.28;36.51;103724.63;5066550;28;51393;-49
2022/01/13 02:36:05;;;;;;;;;6.50;6.50;;;;;19.27;36.62;103718.22;5062639;28;51900;-50
2022/01/13 02:38:31;;;;;;;;;6.00;4.50;;;;;19.26;36.85;103716.50;5070098;28;51392;-48
2022/01/13 02:40:58;;;;;;;;;9.25;7.00;;;;;19.25;36.83;103708.41;5062996;28;51176;-52
2022/01/13 02:43:24;;;;;;;;;8.25;6.00;;;;;19.24;36.77;103707.53;5062983;28;51357;-51
2022/01/13 02:48:46;;;;;;;;;6.50;4.75;;;;;19.21;36.61;103698.72;5062025;28;51447;-49
2022/01/13 02:51:11;;;;;;;;;5.75;5.75;;;;;19.22;36.62;103700.47;5069841;28;51174;-50
2022/01/13 02:53:37;;;;;;;;;5.25;5.25;;;;;19.20;36.73;103697.84;5060792;28;51049;-48
2022/01/13 02:56:04;;;;;;;;;7.00;5.25;;;;;19.20;36.88;103707.97;5074758;28;51813;-51
2022/01/13 02:58:32;;;;;;;;;6.75;5.25;;;;;19.19;36.52;103703.50;5066778;28;51169;-49
2022/01/13 03:00:58;;;;;;;;;7.00;5.00;;;;;19.18;36.63;103702.63;5068233;28;51276;-50
2022/01/13 03:03:24;;;;;;;;;8.75;7.50;;;;;19.18;36.68;103699.88;5075126;28;51197;-50
2022/01/13 03:05:50;;;;;;;;;7.75;7.75;;;;;19.16;36.80;103698.28;5064662;27;52676;-49
2022/01/13 03:08:15;;;;;;;;;6.50;5.50;;;;;19.15;36.65;103693.78;5066786;28;51059;-49
2022/01/13 03:10:41;;;;;;;;;5.50;4.50;;;;;19.15;36.69;103702.03;5069502;28;51204;-46
2022/01/13 03:13:07;;;;;;;;;5.25;4.00;;;;;19.14;36.62;103709.41;5072470;28;51085;-46
2022/01/13 03:15:33;;;;;;;;;6.00;4.50;;;;;19.14;36.79;103700.31;5069102;28;51021;-52
2022/01/13 03:17:58;;;;;;;;;0.50;0.00;;;;;19.12;36.87;103696.84;5067187;28;51181;-50
2022/01/13 03:20:24;;;;;;;;;4.75;4.00;;;;;19.11;36.69;103693.22;5066667;28;51425;-49
2022/01/13 03:22:50;;;;;;;;;5.25;4.25;;;;;19.11;36.86;103686.88;5066449;28;51739;-49
2022/01/13 03:25:20;;;;;;;;;5.00;4.25;;;;;19.10;36.80;103694.25;5068867;28;51730;-50
2022/01/13 03:27:56;;;;;;;;;4.75;4.00;;;;;19.09;36.58;103686.16;5072622;27;51309;-50
2022/01/13 03:30:21;;;;;;;;;4.50;4.50;;;;;19.09;36.78;103702.63;5072866;28;51223;-49
2022/01/13 03:32:47;;;;;;;;;5.50;4.75;;;;;19.08;36.76;103695.41;5065272;28;51775;-51
2022/01/13 03:35:12;;;;;;;;;4.75;4.50;;;;;19.07;36.61;103700.03;5068954;28;51734;-51
2022/01/13 03:37:38;;;;;;;;;5.00;3.25;;;;;19.06;36.72;103701.03;5065245;28;51569;-52
2022/01/13 03:40:03;;;;;;;;;5.50;4.75;;;;;19.06;36.63;103701.03;5066123;28;50957;-49
2022/01/13 03:42:29;;;;;;;;;4.25;4.00;;;;;19.05;36.59;103699.28;5076336;28;51390;-50
2022/01/13 03:44:55;;;;;;;;;4.50;4.25;;;;;19.04;36.66;103695.69;5067762;28;51580;-51
2022/01/13 03:47:21;;;;;;;;;3.00;3.00;;;;;19.02;36.74;103692.22;5071483;28;51492;-46
2022/01/13 03:49:46;;;;;;;;;7.25;4.75;;;;;19.01;36.77;103695.09;5068958;28;51560;-48
2022/01/13 03:52:23;;;;;;;;;4.00;4.00;;;;;19.01;36.81;103695.97;5061638;28;51365;-49
2022/01/13 03:55:38;;;;;;;;;5.00;3.75;;;;;19.01;36.63;103690.47;5065855;28;52391;-45
2022/01/13 03:58:25;;;;;;;;;4.25;3.75;;;;;18.99;36.78;103695.25;5005424;28;51195;-45
2022/01/13 04:01:12;;;;;;;;;3.25;3.25;;;;;18.98;36.71;103696.25;5065296;28;51190;-52
2022/01/13 04:03:37;;;;;;;;;5.25;3.25;;;;;18.98;37.01;103689.91;5066195;28;50986;-51
2022/01/13 04:06:11;;;;;;;;;3.00;3.00;;;;;18.97;36.51;103689.03;5069330;28;51039;-48
2022/01/13 04:08:38;;;;;;;;;5.00;4.75;;;;;18.96;36.56;103692.78;5072362;28;51374;-44
2022/01/13 04:11:03;;;;;;;;;4.25;3.50;;;;;18.95;36.84;103696.53;5067258;28;51143;-49
2022/01/13 04:13:45;;;;;;;;;4.75;3.00;;;;;18.95;36.81;103699.28;5067327;28;51363;-50
2022/01/13 04:16:16;;;;;;;;;3.00;3.00;;;;;18.95;36.85;103690.16;5064940;28;52198;-46
2022/01/13 04:18:42;;;;;;;;;5.00;5.00;;;;;18.94;36.72;103691.19;5069864;28;51587;-45
2022/01/13 04:21:07;;;;;;;;;3.00;3.00;;;;;18.94;36.85;103700.28;5061203;28;51138;-50
2022/01/13 04:23:33;;;;;;;;;3.00;3.00;;;;;18.93;36.86;103695.81;5063644;28;51283;-50
2022/01/13 04:26:00;;;;;;;;;3.50;3.50;;;;;18.93;36.72;103695.81;5069239;27;51068;-50
2022/01/13 04:28:29;;;;;;;;;3.00;3.00;;;;;18.92;36.88;103691.34;5062448;28;51122;-47
2022/01/13 04:31:00;;;;;;;;;4.50;4.50;;;;;18.92;36.79;103690.47;5070376;28;51144;-51
2022/01/13 04:33:34;;;;;;;;;4.25;4.00;;;;;18.90;36.66;103690.63;5066218;27;51061;-48
2022/01/13 04:36:01;;;;;;;;;2.75;2.75;;;;;18.90;36.97;103682.38;5060506;28;51131;-48
2022/01/13 04:38:26;;;;;;;;;4.25;4.25;;;;;18.89;36.92;103680.66;5065360;28;51391;-48
2022/01/13 04:40:56;;;;;;;;;4.75;3.25;;;;;18.89;36.58;103683.38;5071885;28;51889;-51
2022/01/13 04:43:23;;;;;;;;;2.50;2.50;;;;;18.89;36.80;103691.63;5067021;28;51033;-51
2022/01/13 04:45:48;;;;;;;;;5.00;4.00;;;;;18.90;36.83;103698.00;5067702;28;51091;-52
2022/01/13 04:48:15;;;;;;;;;6.50;6.50;;;;;18.90;36.58;103695.25;5068129;28;50995;-52
2022/01/13 04:50:42;;;;;;;;;6.25;5.00;;;;;18.90;36.39;103696.09;5067971;28;51323;-49
2022/01/13 04:53:07;;;;;;;;;8.50;7.00;;;;;18.88;36.17;103700.88;5058883;28;51095;-52
2022/01/13 04:55:35;;;;;;;;;7.50;6.75;;;;;18.87;35.94;103692.78;5067788;28;51857;-48
2022/01/13 04:58:01;;;;;;;;;8.00;7.75;;;;;18.84;35.67;103695.81;5067623;28;51614;-51
2022/01/13 05:00:31;;;;;;;;;8.25;7.50;;;;;18.83;35.47;103711.41;5065836;28;51235;-54
2022/01/13 05:02:57;;;;;;;;;12.00;10.00;;;;;18.81;35.28;103704.34;5062175;28;51102;-47
2022/01/13 05:05:23;;;;;;;;;7.50;7.00;;;;;18.78;35.29;103707.38;5065619;28;51712;-51
2022/01/13 05:07:49;;;;;;;;;8.00;7.00;;;;;18.75;35.13;103705.75;5065713;28;51162;-52
2022/01/13 05:10:15;;;;;;;;;8.75;6.50;;;;;18.70;35.24;103702.59;5066409;28;51204;-48
2022/01/13 05:12:43;;;;;;;;;8.00;7.00;;;;;18.69;35.25;103715.44;5067241;28;51160;-51
2022/01/13 05:15:23;;;;;;;;;8.00;5.00;;;;;18.66;35.20;103710.25;5065081;28;51240;-50
2022/01/13 05:20:38;;;;;;;;;9.75;7.00;;;;;18.61;34.71;103703.41;5056555;28;51107;-52
2022/01/13 05:23:06;;;;;;;;;9.50;6.00;;;;;18.58;34.72;103701.81;5066201;28;51042;-49
2022/01/13 05:25:31;;;;;;;;;7.25;6.00;;;;;18.55;34.53;103695.72;5061889;28;51700;-45
2022/01/13 05:27:58;;;;;;;;;8.75;8.75;;;;;18.53;34.62;103705.97;5064874;27;51257;-50
2022/01/13 05:30:23;;;;;;;;;8.50;6.50;;;;;18.49;34.57;103705.41;5066584;28;50974;-49
2022/01/13 05:32:49;;;;;;;;;9.50;7.75;;;;;18.46;34.42;103706.56;5067366;28;50965;-49
2022/01/13 05:35:17;;;;;;;;;7.75;7.25;;;;;18.44;34.61;103699.44;5069521;28;51760;-51
2022/01/13 05:37:44;;;;;;;;;12.75;10.00;;;;;18.40;34.62;103693.38;5064405;28;51477;-51
2022/01/13 05:40:12;;;;;;;;;9.50;8.00;;;;;18.38;34.47;103694.53;5065777;28;51014;-49
2022/01/13 05:42:38;;;;;;;;;6.00;6.00;;;;;18.34;34.45;103682.06;5068967;28;51171;-52
2022/01/13 05:45:06;;;;;;;;;6.75;6.25;;;;;18.33;34.90;103680.34;5064251;28;51207;-48
2022/01/13 05:47:32;;;;;;;;;5.25;4.00;;;;;18.37;34.90;103684.56;5073520;28;51410;-51
2022/01/13 05:49:57;;;;;;;;;6.50;5.75;;;;;18.42;35.09;103677.63;5063404;28;51310;-52
2022/01/13 05:52:22;;;;;;;;;7.25;5.75;;;;;18.49;35.11;103674.34;5065243;28;51030;-46
2022/01/13 05:54:48;;;;;;;;;5.25;3.50;;;;;18.58;35.08;103684.47;5065291;28;51651;-47
2022/01/13 05:57:13;;;;;;;;;6.25;5.00;;;;;18.66;35.10;103685.53;5068601;28;51052;-51
2022/01/13 05:59:39;;;;;;;;;9.50;5.00;;;;;18.73;35.26;103683.94;5061693;28;51246;-47
2022/01/13 06:02:05;;;;;;;;;5.00;4.50;;;;;18.81;35.72;103683.22;5069677;28;50904;-48
2022/01/13 06:04:31;;;;;;;;;6.00;6.00;;;;;18.90;35.36;103684.25;5071633;28;53303;-55
2022/01/13 06:06:56;;;;;;;;;4.00;4.00;;;;;19.00;35.65;103685.13;5067268;27;50995;-57
2022/01/13 06:09:21;;;;;;;;;5.25;5.25;;;;;19.09;35.73;103677.91;5065925;28;51124;-50
2022/01/13 06:12:02;;;;;;;;;9.00;5.25;;;;;19.19;35.53;103684.25;5064261;28;50926;-50
2022/01/13 06:14:27;;;;;;;;;3.50;2.50;;;;;19.26;35.75;103680.75;5063519;28;51991;-49
2022/01/13 06:16:53;;;;;;;;;5.25;4.25;;;;;19.34;35.78;103691.03;5064080;28;51349;-51
2022/01/13 06:19:18;;;;;;;;;8.75;4.50;;;;;19.40;35.88;103689.59;5069075;28;51538;-49
2022/01/13 06:21:44;;;;;;;;;3.00;2.50;;;;;19.47;36.29;103687.97;5058862;28;51118;-45
2022/01/13 06:24:10;;;;;;;;;2.50;2.50;;;;;19.53;36.47;103685.50;5065136;28;51714;-47
2022/01/13 06:26:35;;;;;;;;;2.00;2.00;;;;;19.59;36.32;103690.47;5068767;27;51078;-46
2022/01/13 06:29:01;;;;;;;;;7.00;4.50;;;;;19.67;36.47;103686.94;5070318;28;51222;-49
2022/01/13 06:31:26;;;;;;;;;3.00;3.00;;;;;19.74;36.39;103681.75;5066580;27;50948;-48
2022/01/13 06:33:51;;;;;;;;;6.00;3.00;;;;;19.79;36.60;103687.63;5061827;28;51031;-50
2022/01/13 06:36:17;;;;;;;;;6.25;3.00;;;;;19.85;36.58;103690.66;5063838;28;51099;-46
2022/01/13 06:38:43;;;;;;;;;3.00;3.00;;;;;19.92;36.62;103692.84;5088482;27;51558;-47
2022/01/13 06:41:08;;;;;;;;;4.50;3.00;;;;;19.99;36.33;103697.56;5072534;28;51294;-46
2022/01/13 06:43:35;;;;;;;;;5.50;3.75;;;;;20.04;36.65;103689.75;5064983;28;50940;-51
2022/01/13 06:46:00;;;;;;;;;5.25;2.25;;;;;20.10;36.29;103691.88;5066381;28;51517;-47
2022/01/13 06:48:26;;;;;;;;;4.00;3.00;;;;;20.15;36.00;103686.78;5063362;28;51356;-48
2022/01/13 06:50:51;;;;;;;;;2.25;2.25;;;;;20.19;36.15;103682.69;5067948;28;51276;-57
2022/01/13 06:53:16;;;;;;;;;5.50;4.50;;;;;20.24;36.08;103693.28;5068386;28;51697;-54
2022/01/13 06:55:42;;;;;;;;;5.00;4.00;;;;;20.28;36.38;103693.81;5064810;28;50983;-45
2022/01/13 06:58:07;;;;;;;;;2.50;2.50;;;;;20.32;36.15;103696.13;5071205;27;51598;-52
2022/01/13 07:00:33;;;;;;;;;5.00;3.00;;;;;20.35;36.13;103692.22;5059088;28;51061;-51
2022/01/13 07:03:02;;;;;;;;;4.25;3.25;;;;;20.40;36.12;103692.59;5066253;28;51169;-46
2022/01/13 07:05:27;;;;;;;;;2.00;2.00;;;;;20.44;36.05;103691.31;5058518;28;51270;-52
2022/01/13 07:07:53;;;;;;;;;3.50;3.50;;;;;20.49;35.84;103691.72;5063383;28;51089;-48
2022/01/13 07:10:18;;;;;;;;;5.00;4.00;;;;;20.54;35.87;103703.16;5069079;28;51208;-51
2022/01/13 07:12:44;;;;;;;;;4.75;3.00;;;;;20.57;35.75;103697.31;5073225;28;52069;-50
2022/01/13 07:15:11;;;;;;;;;2.00;2.00;;;;;20.61;35.90;103698.72;5065229;28;51153;-47
2022/01/13 07:17:37;;;;;;;;;4.25;3.75;;;;;20.68;36.02;103702.63;5055371;28;51101;-50
2022/01/13 07:20:03;;;;;;;;;3.50;3.50;;;;;20.74;35.72;103704.75;5055162;28;51324;-50
2022/01/13 07:22:29;;;;;;;;;3.25;3.25;;;;;20.82;35.86;103697.59;5070239;27;54178;-52
2022/01/13 07:24:55;;;;;;;;;5.00;3.00;;;;;20.88;35.76;103710.75;5073351;28;51475;-47
2022/01/13 07:27:20;;;;;;;;;4.00;4.00;;;;;20.93;35.47;103700.97;5087585;27;51205;-47
2022/01/13 07:29:48;;;;;;;;;4.50;4.50;;;;;20.99;35.28;103700.34;5094081;27;51037;-48
2022/01/13 07:32:13;;;;;;;;;3.75;3.75;;;;;21.02;35.35;103697.28;5092284;27;51925;-49
2022/01/13 07:34:39;;;;;;;;;5.25;5.00;;;;;21.08;35.76;103694.94;5092223;27;51486;-51
2022/01/13 07:37:05;;;;;;;;;4.00;3.75;;;;;21.13;35.55;103701.69;5078285;28;51151;-51
2022/01/13 07:39:30;;;;;;;;;5.25;3.50;;;;;21.19;35.41;103706.56;5078242;28;51014;-49
2022/01/13 07:41:56;;;;;;;;;4.25;2.50;;;;;21.26;35.36;103702.19;5078052;28;51798;-47
2022/01/13 07:44:21;;;;;;;;;6.25;6.00;;;;;21.31;35.21;103705.34;5075578;28;51084;-51
2022/01/13 07:46:47;;;;;;;;;4.50;4.00;;;;;21.35;34.92;103696.72;5065476;28;50989;-53
2022/01/13 07:49:12;;;;;;;;;3.50;3.50;;;;;21.37;35.22;103697.47;5062315;28;51260;-58
2022/01/13 07:51:37;;;;;;;;;5.75;4.75;;;;;21.40;34.86;103697.13;5057951;28;51984;-51
2022/01/13 07:54:03;;;;;;;;;5.00;4.75;;;;;21.45;35.21;103698.38;5064318;28;51002;-45
2022/01/13 07:56:29;;;;;;;;;6.25;4.75;;;;;21.51;34.81;103694.13;5071741;28;51185;-47
2022/01/13 07:58:55;;;;;;;;;7.25;5.75;;;;;21.55;34.62;103698.28;5057696;28;51056;-46
2022/01/13 08:01:21;;;;;;;;;4.50;4.50;;;;;21.59;35.06;103699.69;5057274;28;51000;-50
2022/01/13 08:03:46;;;;;;;;;5.00;5.00;;;;;21.64;34.60;103691.78;5057753;28;51101;-52
2022/01/13 08:06:12;;;;;;;;;6.75;4.25;;;;;21.68;34.37;103700.63;5069363;28;50963;-49
2022/01/13 08:08:38;;;;;;;;;5.00;4.00;;;;;21.70;34.54;103691.16;5078012;28;50918;-46
2022/01/13 08:11:05;;;;;;;;;4.25;4.25;;;;;21.73;34.79;103685.31;5073451;27;52716;-49
2022/01/13 08:13:31;;;;;;;;;3.00;3.00;;;;;21.73;34.39;103682.53;5057282;28;51294;-44
2022/01/13 08:16:00;;;;;;;;;6.75;4.00;;;;;21.76;34.41;103687.72;5068951;27;51126;-47
2022/01/13 08:21:10;;;;;;;;;3.00;3.00;;;;;21.81;34.39;103701.06;5077180;28;50972;-51
2022/01/13 08:23:35;;;;;;;;;11.00;9.00;;;;;21.81;33.40;103701.06;5077546;28;50993;-51
2022/01/13 08:26:01;;;;;;;;;12.00;11.00;;;;;21.68;32.02;103704.25;5079094;27;50953;-45
2022/01/13 08:28:28;;;;;;;;;13.50;12.50;;;;;21.47;31.76;103699.09;5098140;27;51233;-48
2022/01/13 08:30:57;;;;;;;;;11.75;11.75;;;;;21.22;31.37;103697.97;5097512;27;51981;-49
2022/01/13 08:33:23;;;;;;;;;11.00;9.00;;;;;21.02;32.01;103704.69;5097919;27;51588;-47
2022/01/13 08:35:53;;;;;;;;;10.00;9.75;;;;;20.85;31.49;103686.28;5098421;27;51009;-49
2022/01/13 08:38:19;;;;;;;;;13.00;12.00;;;;;20.72;31.59;103686.63;5097941;27;51184;-49
2022/01/13 08:40:47;;;;;;;;;9.50;9.50;;;;;20.66;31.85;103685.38;5097480;27;52735;-45
2022/01/13 08:43:14;;;;;;;;;10.50;10.50;;;;;20.65;32.08;103691.91;5097618;27;51122;-44
2022/01/13 08:45:41;;;;;;;;;12.25;11.00;;;;;20.66;32.25;103679.88;5097180;27;50961;-44
2022/01/13 08:48:06;;;;;;;;;11.00;9.75;;;;;20.70;31.93;103685.94;5097871;27;51064;-48
2022/01/13 08:50:32;;;;;;;;;11.50;8.75;;;;;20.74;31.90;103692.88;5097219;27;51943;-46
2022/01/13 08:52:57;;;;;;;;;8.25;7.25;;;;;20.78;31.81;103687.91;5096958;27;51041;-44
2022/01/13 08:55:23;;;;;;;;;8.00;6.25;;;;;20.82;32.24;103692.06;5087186;27;51172;-44
2022/01/13 08:57:48;;;;;;;;;9.75;7.25;;;;;20.86;32.11;103688.00;5057119;28;51795;-46
2022/01/13 09:00:14;;;;;;;;;7.00;6.25;;;;;20.89;32.29;103682.16;5058633;28;51883;-46
2022/01/13 09:02:42;;;;;;;;;5.50;5.00;;;;;20.91;32.34;103680.97;5056851;28;51173;-45
2022/01/13 09:05:08;;;;;;;;;7.50;7.25;;;;;20.94;32.34;103690.81;5068755;28;51150;-45
2022/01/13 09:07:33;;;;;;;;;7.25;5.75;;;;;20.96;32.60;103694.31;5085278;27;51139;-46
2022/01/13 09:09:58;;;;;;;;;8.50;7.00;;;;;21.00;32.57;103706.72;5080809;27;51062;-48
2022/01/13 09:12:24;;;;;;;;;8.50;8.50;;;;;20.99;32.78;103697.59;5077155;27;51108;-44
2022/01/13 09:14:51;;;;;;;;;5.75;5.75;;;;;20.99;32.15;103707.75;5076753;27;51081;-48
2022/01/13 09:17:22;;;;;;;;;8.75;7.50;;;;;20.99;32.39;103713.28;5077071;27;51281;-48
2022/01/13 09:19:49;;;;;;;;;6.25;6.25;;;;;21.01;32.29;103711.22;5076301;27;52864;-48
2022/01/13 09:22:14;;;;;;;;;8.75;8.75;;;;;21.03;32.82;103720.19;5076682;27;50895;-46
2022/01/13 09:24:40;;;;;;;;;6.75;6.00;;;;;21.06;32.90;103725.41;5075991;27;50989;-46
2022/01/13 09:27:07;;;;;;;;;7.25;7.25;;;;;21.07;32.43;103718.88;5087679;27;51202;-48
2022/01/13 09:29:32;;;;;;;;;6.25;6.00;;;;;21.09;32.67;103724.22;5096550;27;52883;-48
2022/01/13 09:31:57;;;;;;;;;6.25;6.25;;;;;21.10;32.96;103721.31;5097099;27;50887;-49
2022/01/13 09:34:23;;;;;;;;;10.00;7.00;;;;;21.12;33.16;103724.75;5097164;27;50923;-50
2022/01/13 09:36:48;;;;;;;;;8.00;5.75;;;;;21.15;32.84;103726.31;5096926;27;51186;-49
2022/01/13 09:39:14;;;;;;;;;6.00;4.00;;;;;21.18;33.17;103734.31;5084304;27;51064;-46
2022/01/13 09:41:44;;;;;;;;;7.50;6.00;;;;;21.18;32.91;103732.41;5076491;28;51237;-46
2022/01/13 09:44:13;;;;;;;;;6.25;5.50;;;;;21.22;32.74;103735.72;5076309;28;51028;-50
2022/01/13 09:46:40;;;;;;;;;8.75;7.75;;;;;21.23;32.72;103732.78;5076491;27;51227;-49
2022/01/13 09:49:06;;;;;;;;;5.25;5.25;;;;;21.25;32.71;103739.00;5066120;27;51036;-50
2022/01/13 09:51:33;;;;;;;;;8.75;7.00;;;;;21.27;33.21;103742.53;5055510;28;51037;-46
2022/01/13 09:53:59;;;;;;;;;7.75;6.50;;;;;21.30;32.77;103747.72;5055831;28;51148;-50
2022/01/13 09:56:25;;;;;;;;;6.00;5.50;;;;;21.31;32.92;103735.66;5055370;28;51353;-51
2022/01/13 09:58:50;;;;;;;;;6.75;6.00;;;;;21.33;33.26;103741.00;5060874;28;51867;-55
2022/01/13 10:01:16;;;;;;;;;6.00;6.00;;;;;21.36;33.01;103740.69;5056924;28;51183;-49
2022/01/13 10:03:42;;;;;;;;;5.00;5.00;;;;;21.39;32.97;103739.53;5071908;27;51140;-49
2022/01/13 10:06:10;;;;;;;;;6.50;6.00;;;;;21.40;33.02;103738.50;5076277;27;51071;-47
2022/01/13 10:08:50;;;;;;;;;5.00;5.00;;;;;21.43;33.08;103741.78;5065825;27;51946;-49
2022/01/13 10:11:28;;;;;;;;;4.50;4.50;;;;;21.46;33.09;103744.22;5055555;28;51300;-50
2022/01/13 10:14:01;;;;;;;;;9.00;5.75;;;;;21.49;33.13;103737.53;5055395;28;50970;-50
2022/01/13 10:16:28;;;;;;;;;6.00;6.00;;;;;21.51;33.38;103736.34;5055269;28;51281;-52
2022/01/13 10:18:54;;;;;;;;;6.75;6.00;;;;;21.53;33.54;103741.72;5055066;28;51899;-51
2022/01/13 10:21:20;;;;;;;;;9.25;6.75;;;;;21.54;33.42;103740.69;5070064;28;51132;-53
2022/01/13 10:24:09;;;;;;;;;7.25;5.25;;;;;21.58;33.17;103733.84;5075716;27;51096;-53
2022/01/13 10:26:36;;;;;;;;;5.00;5.00;;;;;21.61;33.62;103742.63;5082115;27;51031;-51
2022/01/13 10:29:04;;;;;;;;;4.50;4.50;;;;;21.63;33.16;103745.25;5092645;27;52012;-51
2022/01/13 10:31:51;;;;;;;;;8.75;8.00;;;;;21.67;33.22;103740.25;5054102;28;51023;-51
2022/01/13 10:34:26;;;;;;;;;8.25;8.00;;;;;21.69;33.31;103740.97;5073692;28;51052;-50
2022/01/13 10:37:13;;;;;;;;;9.50;8.25;;;;;21.72;33.44;103744.28;5075597;28;51151;-48
2022/01/13 10:39:50;;;;;;;;;11.75;10.25;;;;;21.73;32.89;103740.47;5074878;28;51192;-48
2022/01/13 10:45:14;;;;;;;;;20.00;18.25;;;;;21.72;32.51;103741.50;5048454;28;51193;-50
2022/01/13 10:47:40;;;;;;;;;19.75;19.50;;;;;21.72;32.54;103730.47;5055024;28;50947;-49
2022/01/13 10:50:13;;;;;;;;;22.50;20.75;;;;;21.72;33.08;103738.75;5055222;28;51768;-51
2022/01/13 10:52:39;;;;;;;;;20.25;17.25;;;;;21.73;32.64;103732.22;5054071;28;51387;-50
2022/01/13 10:55:12;;;;;;;;;18.50;16.00;;;;;21.75;33.04;103721.00;5055783;28;51462;-47
2022/01/13 10:57:43;;;;;;;;;14.75;12.50;;;;;21.79;32.79;103733.47;5055115;28;50982;-50
2022/01/13 11:00:19;;;;;;;;;18.00;14.50;;;;;21.81;32.75;103737.78;5054491;28;51869;-50
2022/01/13 11:02:45;;;;;;;;;21.25;18.50;;;;;21.84;33.34;103737.47;5054361;28;51062;-53
2022/01/13 11:05:11;;;;;;;;;23.25;20.75;;;;;21.86;32.94;103721.59;5054692;28;50908;-51
2022/01/13 11:07:40;;;;;;;;;28.00;21.00;;;;;21.87;33.26;103719.69;5060702;28;51314;-50
2022/01/13 11:10:07;;;;;;;;;19.75;19.75;;;;;21.88;33.17;103714.06;5057999;28;51107;-49
2022/01/13 11:12:38;;;;;;;;;26.25;21.50;;;;;21.90;33.51;103716.63;5057968;28;51432;-52
2022/01/13 11:15:12;;;;;;;;;22.50;22.25;;;;;21.91;33.50;103710.09;5058023;28;51256;-52
2022/01/13 11:17:39;;;;;;;;;19.75;17.50;;;;;21.93;33.67;103710.78;5057761;28;51210;-51
2022/01/13 11:20:10;;;;;;;;;21.00;17.50;;;;;21.97;34.21;103706.66;5057408;28;52671;-50
2022/01/13 11:22:38;;;;;;;;;16.50;14.50;;;;;22.02;34.19;103706.19;5056302;28;51126;-49
2022/01/13 11:25:12;;;;;;;;;21.00;19.00;;;;;22.07;33.85;103703.81;5057957;28;50958;-49
2022/01/13 11:27:38;;;;;;;;;21.50;18.25;;;;;22.12;34.37;103709.72;5080346;27;50964;-51
2022/01/13 11:30:11;;;;;;;;;19.00;15.25;;;;;22.18;34.89;103714.56;5077564;28;51350;-53
2022/01/13 11:32:39;;;;;;;;;13.25;12.25;;;;;22.24;34.82;103702.00;5077987;28;51239;-47
2022/01/13 11:35:06;;;;;;;;;15.00;14.00;;;;;22.30;34.51;103699.47;5078310;28;51020;-50
2022/01/13 11:37:34;;;;;;;;;14.00;12.75;;;;;22.34;34.32;103698.09;5077651;28;51042;-49
2022/01/13 11:40:00;;;;;;;;;13.25;12.00;;;;;22.38;34.83;103691.19;5064026;27;51114;-49
2022/01/13 11:42:25;;;;;;;;;15.75;13.00;;;;;22.40;34.27;103689.09;5057163;28;51038;-48
2022/01/13 11:45:10;;;;;;;;;12.00;11.00;;;;;22.44;34.82;103686.91;5057382;28;51073;-51
2022/01/13 11:47:35;;;;;;;;;12.00;10.00;;;;;22.45;34.47;103691.41;5057482;28;51141;-51
2022/01/13 11:50:17;;;;;;;;;14.75;13.00;;;;;22.46;34.32;103679.31;5057744;28;51914;-47
2022/01/13 11:52:47;;;;;;;;;8.50;8.00;;;;;22.47;34.47;103679.13;5057104;28;51127;-50
2022/01/13 11:55:21;;;;;;;;;8.50;8.00;;;;;22.50;34.31;103677.94;5057640;28;51074;-50
2022/01/13 11:57:47;;;;;;;;;9.50;9.50;;;;;22.51;34.37;103674.16;5057362;28;50982;-50
2022/01/13 12:00:22;;;;;;;;;9.00;9.00;;;;;22.53;34.21;103671.22;5072435;28;51077;-48